Pine Cliff, Utah
Current Conditions -  °F | °C
As of 12:53 PM on Thursday 29 Jan 2015 (Local Time) from KEVW Reporting Station
Broken Clouds Broken Clouds  
Wind Chill: 30°   Ceiling: 1100
Heat Index: 34°   Visibility: 10mi
Dew Point: 28°   Wind: 5mph
Humidity: 79%   Direction: 10°N
Pressure: 30.36"   Gusts: NA
Location:  40.9431°N, 111.212°W
Report Text: KEVW 291953Z AUTO 01004KT 10SM BKN011 01/M02 A3036 RMK AO2 SLP282 T00111022
Loading
Personal Weather Stations






























Interactive Weather Map New forecast layout! Learn more

10-Day Weather Forecast

Advertisements
Track Severe Weather on mobile